createdAt,value
2023-04-26T00:00:55.541Z,5.82
2023-04-26T00:03:23.548Z,5.86
2023-04-26T00:05:51.006Z,5.86
2023-04-26T00:08:17.920Z,5.82
2023-04-26T00:10:45.017Z,5.83
2023-04-26T00:13:12.016Z,5.86
2023-04-26T00:15:39.276Z,5.89
2023-04-26T00:18:06.298Z,5.89
2023-04-26T00:20:33.403Z,5.95
2023-04-26T00:23:00.348Z,5.94
2023-04-26T00:25:27.502Z,5.94
2023-04-26T00:27:54.381Z,5.94
2023-04-26T00:30:22.547Z,5.93
2023-04-26T00:32:49.506Z,5.95
2023-04-26T00:35:16.818Z,6.00
2023-04-26T00:37:43.848Z,6.02
2023-04-26T00:40:11.746Z,6.00
2023-04-26T00:42:40.124Z,6.01
2023-04-26T00:45:07.778Z,6.04
2023-04-26T00:47:35.385Z,6.05
2023-04-26T00:50:03.600Z,5.99
2023-04-26T00:52:31.877Z,6.02
2023-04-26T00:54:59.142Z,6.02
2023-04-26T00:57:26.291Z,6.06
2023-04-26T00:59:53.497Z,6.03
2023-04-26T01:02:21.039Z,6.04
2023-04-26T01:04:48.489Z,6.05
2023-04-26T01:07:15.428Z,6.05
2023-04-26T01:09:44.175Z,6.07
2023-04-26T01:12:12.042Z,6.09
2023-04-26T01:14:40.096Z,6.10
2023-04-26T01:17:07.056Z,6.10
2023-04-26T01:19:37.524Z,6.10
2023-04-26T01:22:04.451Z,6.16
2023-04-26T01:24:33.106Z,6.14
2023-04-26T01:27:00.016Z,6.15
2023-04-26T01:29:27.489Z,6.19
2023-04-26T01:31:54.350Z,6.19
2023-04-26T01:34:21.842Z,6.15
2023-04-26T01:36:48.783Z,6.19
2023-04-26T01:39:16.054Z,6.23
2023-04-26T01:41:42.956Z,6.20
2023-04-26T01:44:10.171Z,6.25
2023-04-26T01:46:37.169Z,6.26
2023-04-26T01:49:04.398Z,6.21
2023-04-26T01:51:31.439Z,6.26
2023-04-26T01:53:58.703Z,6.20
2023-04-26T01:56:25.977Z,6.22
2023-04-26T01:58:53.414Z,6.17
2023-04-26T02:01:20.397Z,6.19
2023-04-26T02:03:49.334Z,6.19
2023-04-26T02:06:16.358Z,6.16
2023-04-26T02:08:43.493Z,6.15
2023-04-26T02:11:10.472Z,6.14
2023-04-26T02:13:38.232Z,6.16
2023-04-26T02:16:05.519Z,6.09
2023-04-26T02:18:32.645Z,6.04
2023-04-26T02:20:59.477Z,6.03
2023-04-26T02:23:26.641Z,6.02
2023-04-26T02:25:53.614Z,6.08
2023-04-26T02:28:21.123Z,6.09
2023-04-26T02:30:47.943Z,6.08
2023-04-26T02:33:15.143Z,6.10
2023-04-26T02:35:41.971Z,6.14
2023-04-26T02:38:09.223Z,6.12
2023-04-26T02:40:36.148Z,6.16
2023-04-26T02:43:03.599Z,6.14
2023-04-26T02:45:30.481Z,6.11
2023-04-26T02:47:57.679Z,6.12
2023-04-26T02:50:24.541Z,6.08
2023-04-26T02:52:51.747Z,6.11
2023-04-26T02:55:18.826Z,6.12
2023-04-26T02:57:45.965Z,6.12
2023-04-26T03:00:14.289Z,6.15
2023-04-26T03:02:42.079Z,6.15
2023-04-26T03:05:09.824Z,6.13
2023-04-26T03:07:37.354Z,6.08
2023-04-26T03:10:05.467Z,6.14
2023-04-26T03:12:32.632Z,6.17
2023-04-26T03:14:59.546Z,6.15
2023-04-26T03:17:26.908Z,6.20
2023-04-26T03:19:54.259Z,6.20
2023-04-26T03:22:21.414Z,6.19
2023-04-26T03:24:49.195Z,6.19
2023-04-26T03:27:16.636Z,6.15
2023-04-26T03:29:44.244Z,6.20
2023-04-26T03:32:11.740Z,6.20
2023-04-26T03:34:38.643Z,6.21
2023-04-26T03:37:05.758Z,6.20
2023-04-26T03:39:32.979Z,6.21
2023-04-26T03:42:00.226Z,6.17
2023-04-26T03:44:27.739Z,6.19
2023-04-26T03:46:56.472Z,6.18
2023-04-26T03:49:23.349Z,6.18
2023-04-26T03:51:50.816Z,6.14
2023-04-26T03:54:17.694Z,6.13
2023-04-26T03:56:44.868Z,6.09
2023-04-26T03:59:12.136Z,6.11
2023-04-26T04:01:39.289Z,6.07
2023-04-26T04:04:06.426Z,6.04
2023-04-26T04:06:33.621Z,6.04
2023-04-26T04:09:00.482Z,6.07
2023-04-26T04:11:27.704Z,6.02
2023-04-26T04:13:54.629Z,5.98
2023-04-26T04:16:21.977Z,5.98
2023-04-26T04:18:48.904Z,5.97
2023-04-26T04:21:16.559Z,5.97
2023-04-26T04:23:44.413Z,5.97
2023-04-26T04:26:12.692Z,5.98
2023-04-26T04:28:41.677Z,5.98
2023-04-26T04:31:11.795Z,5.95
2023-04-26T04:33:38.927Z,6.01
2023-04-26T04:36:06.930Z,6.00
2023-04-26T04:38:33.913Z,6.04
2023-04-26T04:41:01.116Z,6.09
2023-04-26T04:43:28.066Z,6.14
2023-04-26T04:45:55.740Z,6.16
2023-04-26T04:48:22.696Z,6.17
2023-04-26T04:50:50.477Z,6.20
2023-04-26T04:53:17.533Z,6.23
2023-04-26T04:55:44.920Z,6.23
2023-04-26T04:58:12.410Z,6.24
2023-04-26T05:00:39.778Z,6.21
2023-04-26T05:03:10.051Z,6.20
2023-04-26T05:05:37.494Z,6.22
2023-04-26T05:08:04.538Z,6.24
2023-04-26T05:10:31.789Z,6.26
2023-04-26T05:12:58.622Z,6.28
2023-04-26T05:15:25.804Z,6.33
2023-04-26T05:17:52.737Z,6.36
2023-04-26T05:20:20.007Z,6.43
2023-04-26T05:22:47.069Z,6.45
2023-04-26T05:25:14.333Z,6.38
2023-04-26T05:27:41.167Z,6.41
2023-04-26T05:30:08.870Z,6.37
2023-04-26T05:32:35.742Z,6.41
2023-04-26T05:35:03.166Z,6.47
2023-04-26T05:37:30.027Z,6.59
2023-04-26T05:39:57.392Z,6.68
2023-04-26T05:42:24.222Z,6.80
2023-04-26T05:44:51.371Z,6.96
2023-04-26T05:47:18.342Z,7.17
2023-04-26T05:49:45.487Z,7.34
2023-04-26T05:52:12.316Z,7.51
2023-04-26T05:54:39.491Z,7.70
2023-04-26T05:57:06.474Z,7.94
2023-04-26T05:59:36.749Z,8.10
2023-04-26T06:02:04.932Z,8.20
2023-04-26T06:04:32.820Z,8.24
2023-04-26T06:07:00.605Z,8.26
2023-04-26T06:09:27.894Z,8.17
2023-04-26T06:11:54.766Z,8.10
2023-04-26T06:14:30.027Z,8.36
2023-04-26T06:16:58.645Z,8.63
2023-04-26T06:19:25.886Z,8.91
2023-04-26T06:21:55.015Z,9.14
2023-04-26T06:24:23.441Z,9.38
2023-04-26T06:26:50.294Z,9.60
2023-04-26T06:29:17.658Z,9.61
2023-04-26T06:31:44.465Z,9.63
2023-04-26T06:34:11.608Z,9.66
2023-04-26T06:36:38.542Z,9.85
2023-04-26T06:39:06.303Z,10.13
2023-04-26T06:41:33.258Z,10.42
2023-04-26T06:44:00.489Z,11.00
2023-04-26T06:46:27.389Z,11.37
2023-04-26T06:48:55.529Z,11.82
2023-04-26T06:51:22.445Z,12.17
2023-04-26T06:53:49.651Z,12.62
2023-04-26T06:56:17.008Z,13.23
2023-04-26T06:59:04.244Z,13.60
2023-04-26T07:01:34.110Z,13.87
2023-04-26T07:04:07.923Z,13.92
2023-04-26T07:06:36.183Z,14.42
2023-04-26T07:09:03.896Z,14.45
2023-04-26T07:11:31.473Z,14.31
2023-04-26T07:13:58.601Z,14.37
2023-04-26T07:16:26.709Z,14.49
2023-04-26T07:18:53.982Z,14.20
2023-04-26T07:21:20.837Z,13.92
2023-04-26T07:23:47.899Z,13.67
2023-04-26T07:26:14.758Z,13.15
2023-04-26T07:28:42.020Z,12.58
2023-04-26T07:31:10.149Z,11.95
2023-04-26T07:33:38.360Z,11.43
2023-04-26T07:36:05.921Z,11.06
2023-04-26T07:38:33.047Z,10.94
2023-04-26T07:41:01.431Z,11.07
2023-04-26T07:43:28.611Z,11.11
2023-04-26T07:45:55.559Z,10.99
2023-04-26T07:48:22.807Z,10.84
2023-04-26T07:50:49.629Z,10.74
2023-04-26T07:53:16.736Z,10.87
2023-04-26T07:55:43.570Z,11.05
2023-04-26T07:58:14.608Z,11.24
2023-04-26T08:00:41.939Z,11.22
2023-04-26T08:03:09.409Z,11.01
2023-04-26T08:05:36.531Z,10.83
2023-04-26T08:08:04.241Z,10.87
2023-04-26T08:10:31.260Z,11.28
2023-04-26T08:12:58.386Z,11.60
2023-04-26T08:15:25.177Z,11.84
2023-04-26T08:17:53.478Z,11.70
2023-04-26T08:20:20.948Z,11.56
2023-04-26T08:22:48.061Z,11.87
2023-04-26T08:25:15.619Z,12.17
2023-04-26T08:27:44.917Z,12.48
2023-04-26T08:30:12.303Z,12.64
2023-04-26T08:32:39.452Z,12.44
2023-04-26T08:35:06.618Z,12.31
2023-04-26T08:37:33.824Z,12.01
2023-04-26T08:40:00.638Z,11.53
2023-04-26T08:42:28.944Z,11.41
2023-04-26T08:44:59.877Z,11.43
2023-04-26T08:47:40.253Z,11.65
2023-04-26T08:50:08.470Z,11.76
2023-04-26T08:52:35.617Z,11.85
2023-04-26T08:55:05.484Z,11.92
2023-04-26T08:57:35.692Z,12.01
2023-04-26T09:00:12.455Z,12.11
2023-04-26T09:02:57.459Z,11.94
2023-04-26T09:05:24.947Z,11.96
2023-04-26T09:07:57.016Z,11.90
2023-04-26T09:10:24.139Z,11.77
2023-04-26T09:12:55.124Z,11.82
2023-04-26T09:15:23.546Z,11.88
2023-04-26T09:17:51.918Z,11.79
2023-04-26T09:20:25.861Z,12.22
2023-04-26T09:23:15.879Z,13.27
2023-04-26T09:25:42.708Z,14.74
2023-04-26T09:28:22.752Z,15.08
2023-04-26T09:30:49.993Z,14.96
2023-04-26T09:33:17.253Z,14.52
2023-04-26T09:35:44.235Z,13.61
2023-04-26T09:38:13.528Z,12.83
2023-04-26T09:40:49.219Z,12.38
2023-04-26T09:43:21.580Z,12.25
2023-04-26T09:45:54.039Z,12.05
2023-04-26T09:48:26.328Z,11.84
2023-04-26T09:50:55.222Z,11.59
2023-04-26T09:53:31.742Z,11.77
2023-04-26T09:56:09.861Z,12.18
2023-04-26T09:58:39.129Z,12.54
2023-04-26T10:01:08.043Z,12.65
2023-04-26T10:03:36.158Z,12.56
2023-04-26T10:06:04.320Z,12.51
2023-04-26T10:08:32.857Z,12.20
2023-04-26T10:11:02.315Z,11.78
2023-04-26T10:13:32.468Z,11.27
2023-04-26T10:16:01.546Z,10.87
2023-04-26T10:18:28.997Z,10.42
2023-04-26T10:21:00.166Z,10.32
2023-04-26T10:23:27.837Z,10.31
2023-04-26T10:25:55.171Z,10.18
2023-04-26T10:28:40.482Z,10.10
2023-04-26T10:31:07.882Z,10.12
2023-04-26T10:33:35.189Z,10.06
2023-04-26T10:36:02.042Z,9.93
2023-04-26T10:38:29.358Z,9.83
2023-04-26T10:40:56.951Z,9.68
2023-04-26T10:43:30.458Z,9.40
2023-04-26T10:45:57.411Z,9.18
2023-04-26T10:48:31.849Z,8.96
2023-04-26T10:51:02.218Z,8.92
2023-04-26T10:53:45.574Z,8.86
2023-04-26T10:56:32.242Z,8.87
2023-04-26T10:59:33.362Z,8.94
2023-04-26T11:02:01.066Z,9.01
2023-04-26T11:04:52.442Z,9.03
2023-04-26T11:07:37.754Z,9.15
2023-04-26T11:10:12.018Z,9.36
2023-04-26T11:12:42.038Z,9.61
2023-04-26T11:15:09.425Z,9.78
2023-04-26T11:17:39.240Z,9.91
2023-04-26T11:20:10.195Z,9.95
2023-04-26T11:22:40.803Z,10.00
2023-04-26T11:25:08.045Z,10.07
2023-04-26T11:27:34.875Z,10.03
2023-04-26T11:30:05.393Z,9.99
2023-04-26T11:32:33.593Z,9.91
2023-04-26T11:35:01.275Z,9.82
2023-04-26T11:37:28.237Z,9.93
2023-04-26T11:39:57.460Z,10.17
2023-04-26T11:42:27.318Z,10.37
2023-04-26T11:44:59.390Z,10.57
2023-04-26T11:49:58.420Z,10.74
2023-04-26T11:52:26.594Z,10.76
2023-04-26T11:55:10.687Z,10.81
2023-04-26T11:57:37.708Z,10.98
2023-04-26T12:00:11.579Z,11.12
2023-04-26T12:02:38.748Z,11.37
2023-04-26T12:05:08.879Z,11.77
2023-04-26T12:07:37.774Z,12.03
2023-04-26T12:10:23.935Z,12.28
2023-04-26T12:12:52.121Z,12.46
2023-04-26T12:15:22.539Z,12.42
2023-04-26T12:17:53.890Z,12.14
2023-04-26T12:20:28.013Z,11.71
2023-04-26T12:23:21.193Z,11.40
2023-04-26T12:25:57.548Z,11.15
2023-04-26T12:28:25.039Z,10.88
2023-04-26T12:30:52.738Z,10.85
2023-04-26T12:33:22.863Z,10.73
2023-04-26T12:35:50.971Z,10.66
2023-04-26T12:38:21.003Z,10.55
2023-04-26T12:40:48.132Z,10.64
2023-04-26T12:43:16.767Z,10.57
2023-04-26T12:45:43.960Z,10.57
2023-04-26T12:48:11.897Z,10.63
2023-04-26T12:50:39.362Z,10.82
2023-04-26T12:53:06.261Z,11.07
2023-04-26T12:55:33.531Z,11.41
2023-04-26T12:58:00.647Z,11.77
2023-04-26T13:00:27.927Z,12.02
2023-04-26T13:02:55.719Z,12.16
2023-04-26T13:05:24.995Z,12.25
2023-04-26T13:07:52.095Z,12.23
2023-04-26T13:10:19.241Z,12.05
2023-04-26T13:12:46.238Z,11.94
2023-04-26T13:15:14.327Z,11.71
2023-04-26T13:17:43.132Z,11.50
2023-04-26T13:20:10.903Z,11.49
2023-04-26T13:22:39.486Z,11.53
2023-04-26T13:25:07.109Z,11.57
2023-04-26T13:27:33.949Z,11.52
2023-04-26T13:30:01.657Z,11.31
2023-04-26T13:32:29.588Z,11.07
2023-04-26T13:34:57.061Z,10.93
2023-04-26T13:37:24.010Z,10.91
2023-04-26T13:39:51.385Z,10.98
2023-04-26T13:42:18.567Z,11.08
2023-04-26T13:44:45.821Z,11.11
2023-04-26T13:47:12.739Z,11.12
2023-04-26T13:49:44.876Z,11.26
2023-04-26T13:52:12.120Z,11.30
2023-04-26T13:54:42.047Z,11.36
2023-04-26T13:57:09.141Z,11.42
2023-04-26T13:59:36.582Z,11.59
2023-04-26T14:02:03.893Z,11.78
2023-04-26T14:04:31.307Z,11.95
2023-04-26T14:06:58.921Z,11.93
2023-04-26T14:09:26.087Z,11.92
2023-04-26T14:12:00.862Z,11.80
2023-04-26T14:14:34.855Z,11.54
2023-04-26T14:17:01.797Z,11.35
2023-04-26T14:19:28.932Z,11.22
2023-04-26T14:21:55.882Z,11.12
2023-04-26T14:24:23.025Z,10.90
2023-04-26T14:26:49.958Z,10.70
2023-04-26T14:29:17.304Z,10.44
2023-04-26T14:31:45.172Z,10.22
2023-04-26T14:34:13.486Z,10.14
2023-04-26T14:36:40.713Z,10.13
2023-04-26T14:39:07.952Z,10.21
2023-04-26T14:41:34.825Z,10.23
2023-04-26T14:44:01.980Z,10.25
2023-04-26T14:46:28.900Z,10.29
2023-04-26T14:48:56.049Z,10.31
2023-04-26T14:51:22.868Z,10.46
2023-04-26T14:53:50.034Z,10.53
2023-04-26T14:56:17.112Z,10.57
2023-04-26T14:58:44.333Z,10.65
2023-04-26T15:01:11.235Z,10.64
2023-04-26T15:03:38.693Z,10.52
2023-04-26T15:06:05.998Z,10.33
2023-04-26T15:08:33.195Z,10.21
2023-04-26T15:11:01.023Z,10.11
2023-04-26T15:13:28.158Z,9.92
2023-04-26T15:15:55.005Z,9.77
2023-04-26T15:18:22.544Z,9.69
2023-04-26T15:20:49.444Z,9.56
2023-04-26T15:23:16.807Z,9.50
2023-04-26T15:25:43.873Z,9.40
2023-04-26T15:28:11.376Z,9.41
2023-04-26T15:30:38.207Z,9.49
2023-04-26T15:33:07.740Z,9.64
2023-04-26T15:35:34.548Z,9.66
2023-04-26T15:38:01.934Z,9.74
2023-04-26T15:40:28.805Z,9.68
2023-04-26T15:42:56.044Z,9.54
2023-04-26T15:45:22.907Z,9.45
2023-04-26T15:47:50.080Z,9.33
2023-04-26T15:50:17.243Z,9.32
2023-04-26T15:52:44.426Z,9.27
2023-04-26T15:55:11.401Z,9.27
2023-04-26T15:57:42.097Z,9.26
2023-04-26T16:00:09.829Z,9.25
2023-04-26T16:02:37.414Z,9.21
2023-04-26T16:05:04.948Z,9.15
2023-04-26T16:07:32.470Z,9.12
2023-04-26T16:09:59.303Z,9.03
2023-04-26T16:12:26.470Z,8.84
2023-04-26T16:14:53.332Z,8.78
2023-04-26T16:17:20.696Z,8.72
2023-04-26T16:19:48.565Z,8.70
2023-04-26T16:22:15.912Z,8.65
2023-04-26T16:24:42.725Z,8.55
2023-04-26T16:27:10.066Z,8.56
2023-04-26T16:29:36.994Z,8.55
2023-04-26T16:32:04.199Z,8.56
2023-04-26T16:34:31.435Z,8.56
2023-04-26T16:36:58.640Z,8.57
2023-04-26T16:39:26.170Z,8.50
2023-04-26T16:41:53.964Z,8.45
2023-04-26T16:44:20.863Z,8.44
2023-04-26T16:46:48.028Z,8.42
2023-04-26T16:49:14.878Z,8.32
2023-04-26T16:51:44.420Z,8.28
2023-04-26T16:54:11.457Z,8.23
2023-04-26T16:56:38.597Z,8.19
2023-04-26T16:59:05.431Z,8.13
2023-04-26T17:01:32.680Z,8.07
2023-04-26T17:03:59.636Z,8.06
2023-04-26T17:06:26.918Z,8.04
2023-04-26T17:08:53.829Z,7.99
2023-04-26T17:11:21.112Z,7.90
2023-04-26T17:13:48.002Z,7.79
2023-04-26T17:16:15.268Z,7.64
2023-04-26T17:18:42.257Z,7.54
2023-04-26T17:21:09.429Z,7.44
2023-04-26T17:23:36.457Z,7.35
2023-04-26T17:26:04.467Z,7.24
2023-04-26T17:28:33.079Z,7.14
2023-04-26T17:31:00.700Z,7.03
2023-04-26T17:33:27.662Z,6.94
2023-04-26T17:35:54.826Z,6.85
2023-04-26T17:38:21.888Z,6.79
2023-04-26T17:40:53.863Z,6.72
2023-04-26T17:43:21.293Z,6.70
2023-04-26T17:45:48.532Z,6.69
2023-04-26T17:48:15.980Z,6.64
2023-04-26T17:50:43.220Z,6.59
2023-04-26T17:53:10.227Z,6.58
2023-04-26T17:55:37.894Z,6.56
2023-04-26T17:58:04.776Z,6.59
2023-04-26T18:00:32.246Z,6.59
2023-04-26T18:02:59.561Z,6.61
2023-04-26T18:05:26.846Z,6.62
2023-04-26T18:07:53.713Z,6.61
2023-04-26T18:10:22.028Z,6.58
2023-04-26T18:12:48.941Z,6.54
2023-04-26T18:15:16.205Z,6.50
2023-04-26T18:17:43.690Z,6.43
2023-04-26T18:20:13.126Z,6.37
2023-04-26T18:22:40.551Z,6.34
2023-04-26T18:25:08.039Z,6.26
2023-04-26T18:27:35.014Z,6.17
2023-04-26T18:30:02.294Z,6.01
2023-04-26T18:32:29.179Z,5.92
2023-04-26T18:34:56.330Z,5.79
2023-04-26T18:37:23.264Z,5.66
2023-04-26T18:39:50.491Z,5.59
2023-04-26T18:42:17.370Z,5.49
2023-04-26T18:44:44.571Z,5.36
2023-04-26T18:47:11.879Z,5.26
2023-04-26T18:49:39.079Z,5.14
2023-04-26T18:52:08.799Z,5.04
2023-04-26T18:54:38.402Z,4.92
2023-04-26T18:57:05.177Z,4.77
2023-04-26T18:59:32.297Z,4.72
2023-04-26T19:01:59.209Z,4.65
2023-04-26T19:04:27.236Z,4.55
2023-04-26T19:06:54.249Z,4.37
2023-04-26T19:09:21.881Z,4.22
2023-04-26T19:11:49.093Z,4.08
2023-04-26T19:14:16.291Z,3.93
2023-04-26T19:16:43.997Z,3.78
2023-04-26T19:19:11.329Z,3.65
2023-04-26T19:21:38.261Z,3.53
2023-04-26T19:24:06.021Z,3.44
2023-04-26T19:26:32.962Z,3.39
2023-04-26T19:29:00.163Z,3.33
2023-04-26T19:31:27.938Z,3.25
2023-04-26T19:33:55.128Z,3.21
2023-04-26T19:36:22.040Z,3.17
2023-04-26T19:38:49.234Z,3.17
2023-04-26T19:41:16.150Z,3.17
2023-04-26T19:43:43.349Z,3.12
2023-04-26T19:46:14.140Z,3.08
2023-04-26T19:48:41.501Z,3.03
2023-04-26T19:51:08.566Z,2.95
2023-04-26T19:53:35.853Z,2.87
2023-04-26T19:56:03.355Z,2.77
2023-04-26T19:58:30.522Z,2.69
2023-04-26T20:00:57.475Z,2.61
2023-04-26T20:03:24.775Z,2.59
2023-04-26T20:05:51.937Z,2.47
2023-04-26T20:08:19.262Z,2.41
2023-04-26T20:10:46.320Z,2.32
2023-04-26T20:13:13.521Z,2.23
2023-04-26T20:15:40.442Z,2.16
2023-04-26T20:18:07.656Z,2.11
2023-04-26T20:20:34.554Z,2.03
2023-04-26T20:23:03.122Z,1.96
2023-04-26T20:25:30.013Z,1.89
2023-04-26T20:27:57.237Z,1.82
2023-04-26T20:30:24.190Z,1.76
2023-04-26T20:32:51.342Z,1.69
2023-04-26T20:35:18.327Z,1.61
2023-04-26T20:37:45.918Z,1.52
2023-04-26T20:40:12.833Z,1.45
2023-04-26T20:42:39.980Z,1.39
2023-04-26T20:45:07.593Z,1.32
2023-04-26T20:47:34.815Z,1.24
2023-04-26T20:50:01.689Z,1.15
2023-04-26T20:52:28.923Z,1.13
2023-04-26T20:54:57.263Z,1.07
2023-04-26T20:57:24.670Z,1.07
2023-04-26T20:59:51.481Z,1.07
2023-04-26T21:02:18.930Z,1.11
2023-04-26T21:04:46.211Z,1.12
2023-04-26T21:07:13.542Z,1.16
2023-04-26T21:09:40.455Z,1.22
2023-04-26T21:12:07.678Z,1.27
2023-04-26T21:14:34.485Z,1.30
2023-04-26T21:17:01.721Z,1.34
2023-04-26T21:19:28.569Z,1.37
2023-04-26T21:21:55.804Z,1.44
2023-04-26T21:24:22.793Z,1.48
2023-04-26T21:26:50.008Z,1.49
2023-04-26T21:29:17.163Z,1.52
2023-04-26T21:31:44.481Z,1.61
2023-04-26T21:34:11.509Z,1.65
2023-04-26T21:36:38.662Z,1.71
2023-04-26T21:39:05.752Z,1.76
2023-04-26T21:41:32.888Z,1.81
2023-04-26T21:43:59.716Z,1.86
2023-04-26T21:46:27.038Z,1.88
2023-04-26T21:48:54.077Z,1.93
2023-04-26T21:51:21.236Z,1.90
2023-04-26T21:53:49.323Z,1.91
2023-04-26T21:56:16.589Z,1.95
2023-04-26T21:58:43.530Z,1.97
2023-04-26T22:01:12.703Z,1.99
2023-04-26T22:03:40.094Z,2.05
2023-04-26T22:06:08.661Z,2.06
2023-04-26T22:08:35.915Z,2.13
2023-04-26T22:11:03.253Z,2.15
2023-04-26T22:13:31.403Z,2.20
2023-04-26T22:15:58.722Z,2.25
2023-04-26T22:18:26.513Z,2.28
2023-04-26T22:20:53.729Z,2.32
2023-04-26T22:23:21.210Z,2.38
2023-04-26T22:25:48.009Z,2.40
2023-04-26T22:28:16.047Z,2.44
2023-04-26T22:30:43.007Z,2.45
2023-04-26T22:33:12.331Z,2.49
2023-04-26T22:35:39.251Z,2.49
2023-04-26T22:38:06.392Z,2.52
2023-04-26T22:40:33.404Z,2.53
2023-04-26T22:43:00.602Z,2.58
2023-04-26T22:45:27.584Z,2.60
2023-04-26T22:47:54.843Z,2.63
2023-04-26T22:50:22.156Z,2.66
2023-04-26T22:52:49.947Z,2.69
2023-04-26T22:55:17.535Z,2.72
2023-04-26T22:57:44.847Z,2.77
2023-04-26T23:00:12.826Z,2.82
2023-04-26T23:02:40.747Z,2.79
2023-04-26T23:05:10.274Z,2.81
2023-04-26T23:07:39.639Z,2.85
2023-04-26T23:10:07.026Z,2.86
2023-04-26T23:12:34.270Z,2.88
2023-04-26T23:15:01.956Z,2.89
2023-04-26T23:17:29.158Z,2.90
2023-04-26T23:19:56.527Z,2.91
2023-04-26T23:22:23.744Z,2.93
2023-04-26T23:24:50.814Z,2.97
2023-04-26T23:27:18.941Z,2.99
2023-04-26T23:29:45.954Z,3.07
2023-04-26T23:32:13.381Z,3.09
2023-04-26T23:34:40.288Z,3.17
2023-04-26T23:37:08.274Z,3.23
2023-04-26T23:39:36.308Z,3.28
2023-04-26T23:42:04.055Z,3.32
2023-04-26T23:44:30.994Z,3.35
2023-04-26T23:46:58.130Z,3.38
2023-04-26T23:49:25.559Z,3.43
2023-04-26T23:51:53.050Z,3.50
2023-04-26T23:54:19.943Z,3.58
2023-04-26T23:56:47.051Z,3.61
2023-04-26T23:59:14.320Z,3.68
